Alba, Michigan
Current Conditions -  °F | °C
As of 3:38 PM on Friday 28 Nov 2014 (Local Time) from KACB Reporting Station
Light Snow Light Snow  
Wind Chill: -8°   Ceiling: 3100
Heat Index: -4°   Visibility: 2.5mi
Dew Point: -7°   Wind: 5mph
Humidity: 82%   Direction: 140°SE
Pressure: 30.1"   Gusts: NA
Location:  44.97°N, 84.97°W
Report Text: KACB 282038Z AUTO 14004KT 2 1/2SM -SN BKN031 OVC037 M04/M07 A3010 RMK AO2 T10431070
Loading
Personal Weather Stations






























Interactive Weather Map New forecast layout! Learn more

10-Day Weather Forecast

Advertisements
Track Severe Weather on mobile